createdAt,value
2019-02-18T00:00:48.236Z,5.60
2019-02-18T00:03:18.099Z,5.50
2019-02-18T00:05:47.999Z,5.50
2019-02-18T00:08:17.811Z,5.40
2019-02-18T00:10:47.576Z,5.30
2019-02-18T00:13:17.072Z,5.30
2019-02-18T00:15:46.789Z,5.30
2019-02-18T00:18:16.401Z,5.30
2019-02-18T00:20:45.903Z,5.30
2019-02-18T00:23:16.309Z,5.20
2019-02-18T00:25:46.150Z,5.20
2019-02-18T00:28:15.956Z,5.10
2019-02-18T00:30:46.180Z,5.10
2019-02-18T00:33:15.828Z,5.20
2019-02-18T00:35:45.243Z,5.30
2019-02-18T00:38:15.259Z,5.10
2019-02-18T00:40:47.083Z,4.90
2019-02-18T00:43:16.563Z,4.80
2019-02-18T00:45:46.039Z,4.80
2019-02-18T00:48:16.001Z,4.80
2019-02-18T00:50:45.489Z,4.70
2019-02-18T00:53:14.927Z,4.60
2019-02-18T00:55:44.351Z,4.60
2019-02-18T00:58:13.770Z,4.50
2019-02-18T01:00:43.583Z,4.50
2019-02-18T01:03:13.086Z,4.50
2019-02-18T01:05:42.945Z,4.50
2019-02-18T01:08:12.396Z,4.40
2019-02-18T01:10:42.472Z,4.40
2019-02-18T01:13:12.897Z,4.40
2019-02-18T01:15:42.484Z,4.40
2019-02-18T01:18:11.909Z,4.40
2019-02-18T01:20:41.451Z,4.40
2019-02-18T01:23:11.316Z,4.40
2019-02-18T01:25:40.736Z,4.30
2019-02-18T01:28:10.163Z,4.30
2019-02-18T01:30:39.730Z,4.30
2019-02-18T01:33:09.187Z,4.30
2019-02-18T01:35:38.695Z,4.20
2019-02-18T01:38:08.137Z,4.20
2019-02-18T01:40:37.561Z,4.20
2019-02-18T01:43:07.248Z,4.20
2019-02-18T01:45:37.085Z,4.20
2019-02-18T01:48:06.515Z,4.20
2019-02-18T01:50:36.404Z,4.30
2019-02-18T01:53:06.240Z,4.20
2019-02-18T01:55:35.836Z,4.20
2019-02-18T01:58:05.639Z,4.40
2019-02-18T02:00:35.166Z,4.40
2019-02-18T02:03:04.976Z,4.30
2019-02-18T02:05:34.463Z,4.30
2019-02-18T02:08:04.605Z,4.30
2019-02-18T02:10:34.111Z,4.30
2019-02-18T02:13:30.191Z,4.30
2019-02-18T02:16:00.648Z,4.30
2019-02-18T02:18:30.279Z,4.40
2019-02-18T02:21:00.168Z,4.40
2019-02-18T02:23:29.812Z,4.50
2019-02-18T02:25:59.305Z,4.50
2019-02-18T02:28:29.051Z,4.40
2019-02-18T02:31:00.760Z,4.40
2019-02-18T02:33:29.769Z,4.50
2019-02-18T02:35:59.284Z,4.40
2019-02-18T02:38:28.699Z,4.40
2019-02-18T02:40:58.389Z,4.40
2019-02-18T02:43:27.914Z,4.30
2019-02-18T02:45:57.408Z,4.30
2019-02-18T02:48:26.904Z,4.30
2019-02-18T02:50:56.799Z,4.30
2019-02-18T02:53:26.287Z,4.40
2019-02-18T02:55:55.799Z,4.40
2019-02-18T02:58:25.271Z,4.40
2019-02-18T03:00:55.299Z,4.30
2019-02-18T03:03:24.714Z,4.30
2019-02-18T03:05:54.276Z,4.30
2019-02-18T03:08:24.039Z,4.20
2019-02-18T03:10:54.660Z,4.10
2019-02-18T03:13:24.705Z,4.10
2019-02-18T03:15:54.201Z,4.20
2019-02-18T03:18:23.721Z,4.10
2019-02-18T03:20:53.248Z,4.00
2019-02-18T03:23:22.670Z,4.00
2019-02-18T03:25:52.150Z,4.10
2019-02-18T03:28:44.529Z,4.00
2019-02-18T03:31:17.060Z,4.00
2019-02-18T03:33:55.544Z,4.00
2019-02-18T03:36:25.039Z,3.90
2019-02-18T03:38:54.883Z,3.90
2019-02-18T03:41:24.340Z,3.80
2019-02-18T03:43:53.872Z,3.80
2019-02-18T03:46:23.365Z,3.80
2019-02-18T03:48:53.375Z,3.80
2019-02-18T03:51:22.795Z,3.80
2019-02-18T03:53:52.538Z,3.80
2019-02-18T03:56:22.251Z,3.90
2019-02-18T03:58:51.753Z,3.90
2019-02-18T04:01:21.420Z,3.90
2019-02-18T04:03:51.401Z,3.90
2019-02-18T04:06:21.095Z,3.90
2019-02-18T04:08:51.003Z,3.80
2019-02-18T04:11:21.071Z,3.80
2019-02-18T04:13:50.529Z,3.70
2019-02-18T04:16:20.034Z,3.70
2019-02-18T04:18:49.612Z,3.80
2019-02-18T04:21:19.042Z,3.80
2019-02-18T04:23:48.813Z,3.70
2019-02-18T04:26:18.873Z,3.60
2019-02-18T04:28:48.364Z,3.60
2019-02-18T04:31:17.789Z,3.40
2019-02-18T04:33:47.561Z,3.50
2019-02-18T04:36:16.975Z,3.60
2019-02-18T04:38:53.892Z,3.60
2019-02-18T04:41:17.852Z,3.50
2019-02-18T04:43:47.272Z,3.40
2019-02-18T04:46:16.718Z,3.50
2019-02-18T04:48:46.242Z,3.40
2019-02-18T04:51:15.693Z,3.40
2019-02-18T04:53:45.179Z,3.50
2019-02-18T04:56:14.946Z,3.60
2019-02-18T04:58:44.813Z,3.70
2019-02-18T05:01:14.625Z,3.60
2019-02-18T05:03:44.144Z,3.60
2019-02-18T05:06:13.756Z,3.30
2019-02-18T05:08:43.171Z,3.30
2019-02-18T05:11:12.695Z,3.30
2019-02-18T05:13:42.526Z,3.20
2019-02-18T05:16:12.014Z,3.40
2019-02-18T05:18:42.080Z,3.20
2019-02-18T05:21:11.799Z,3.10
2019-02-18T05:23:41.297Z,3.00
2019-02-18T05:26:10.808Z,3.10
2019-02-18T05:28:40.237Z,3.20
2019-02-18T05:31:09.723Z,3.20
2019-02-18T05:33:39.519Z,3.10
2019-02-18T05:36:09.182Z,3.00
2019-02-18T05:38:38.670Z,3.10
2019-02-18T05:41:08.500Z,3.30
2019-02-18T05:43:38.095Z,3.40
2019-02-18T05:46:08.731Z,3.20
2019-02-18T05:48:38.322Z,3.10
2019-02-18T05:51:07.894Z,3.10
2019-02-18T05:53:37.388Z,3.10
2019-02-18T05:56:06.917Z,3.00
2019-02-18T05:58:36.419Z,3.00
2019-02-18T06:01:08.026Z,3.00
2019-02-18T06:03:37.745Z,3.10
2019-02-18T06:06:07.320Z,3.20
2019-02-18T06:08:37.116Z,3.20
2019-02-18T06:11:06.872Z,3.00
2019-02-18T06:13:36.370Z,3.10
2019-02-18T06:16:06.392Z,3.20
2019-02-18T06:18:36.049Z,3.30
2019-02-18T06:21:05.642Z,3.40
2019-02-18T06:23:35.496Z,3.40
2019-02-18T06:26:05.475Z,3.30
2019-02-18T06:28:35.430Z,3.20
2019-02-18T06:31:05.264Z,3.20
2019-02-18T06:33:34.783Z,3.10
2019-02-18T06:36:05.843Z,3.10
2019-02-18T06:38:35.516Z,3.10
2019-02-18T06:41:04.961Z,3.20
2019-02-18T06:43:34.810Z,3.20
2019-02-18T06:46:06.343Z,3.10
2019-02-18T06:48:37.754Z,3.20
2019-02-18T06:51:07.511Z,3.10
2019-02-18T06:53:37.323Z,3.10
2019-02-18T06:56:06.786Z,3.20
2019-02-18T06:58:37.917Z,3.10
2019-02-18T07:01:26.988Z,3.10
2019-02-18T07:04:00.776Z,3.30
2019-02-18T07:06:31.829Z,3.30
2019-02-18T07:09:09.367Z,3.30
2019-02-18T07:11:40.428Z,3.20
2019-02-18T07:14:09.843Z,3.00
2019-02-18T07:16:39.297Z,3.00
2019-02-18T07:19:29.905Z,3.00
2019-02-18T07:21:59.746Z,2.90
2019-02-18T07:24:29.240Z,2.90
2019-02-18T07:26:58.675Z,2.90
2019-02-18T07:29:28.235Z,2.90
2019-02-18T07:31:57.755Z,2.80
2019-02-18T07:34:27.320Z,2.80
2019-02-18T07:36:57.092Z,2.80
2019-02-18T07:39:26.599Z,2.80
2019-02-18T07:41:56.031Z,2.90
2019-02-18T07:44:26.077Z,2.90
2019-02-18T07:46:55.592Z,3.00
2019-02-18T07:49:25.147Z,3.20
2019-02-18T07:51:54.798Z,3.10
2019-02-18T07:54:24.539Z,3.20
2019-02-18T07:56:53.959Z,3.20
2019-02-18T07:59:23.696Z,3.30
2019-02-18T08:01:53.575Z,3.30
2019-02-18T08:04:22.999Z,3.30
2019-02-18T08:06:52.447Z,3.50
2019-02-18T08:09:21.864Z,3.60
2019-02-18T08:12:13.160Z,3.70
2019-02-18T08:14:42.716Z,3.80
2019-02-18T08:17:12.151Z,3.90
2019-02-18T08:19:42.190Z,4.00
2019-02-18T08:22:11.820Z,4.00
2019-02-18T08:24:41.557Z,4.00
2019-02-18T08:27:11.568Z,4.00
2019-02-18T08:29:41.110Z,4.00
2019-02-18T08:32:10.949Z,4.00
2019-02-18T08:34:40.855Z,4.10
2019-02-18T08:37:10.368Z,4.10
2019-02-18T08:39:40.051Z,4.00
2019-02-18T08:42:09.571Z,4.10
2019-02-18T08:44:38.992Z,4.00
2019-02-18T08:47:08.416Z,4.00
2019-02-18T08:49:37.868Z,4.10
2019-02-18T08:52:07.656Z,4.20
2019-02-18T08:54:37.144Z,4.20
2019-02-18T08:57:07.237Z,4.40
2019-02-18T08:59:36.767Z,4.40
2019-02-18T09:02:06.288Z,4.40
2019-02-18T09:04:35.723Z,4.50
2019-02-18T09:07:05.155Z,4.60
2019-02-18T09:09:34.611Z,4.80
2019-02-18T09:12:04.140Z,4.90
2019-02-18T09:14:33.920Z,4.90
2019-02-18T09:17:03.423Z,5.00
2019-02-18T09:19:33.099Z,5.20
2019-02-18T09:22:07.452Z,5.30
2019-02-18T09:24:41.500Z,5.50
2019-02-18T09:27:10.919Z,5.40
2019-02-18T09:29:40.411Z,5.40
2019-02-18T09:32:09.861Z,5.50
2019-02-18T09:34:39.288Z,5.60
2019-02-18T09:37:08.776Z,5.70
2019-02-18T09:39:39.012Z,5.70
2019-02-18T09:42:08.503Z,5.80
2019-02-18T09:44:37.999Z,5.70
2019-02-18T09:47:07.944Z,5.70
2019-02-18T09:49:37.372Z,5.70
2019-02-18T09:52:06.979Z,5.70
2019-02-18T09:54:36.765Z,5.60
2019-02-18T09:57:06.606Z,5.80
2019-02-18T09:59:36.105Z,6.10
2019-02-18T10:02:05.760Z,6.60
2019-02-18T10:04:35.260Z,7.10
2019-02-18T10:07:04.792Z,7.50
2019-02-18T10:09:34.243Z,7.70
2019-02-18T10:12:04.604Z,7.80
2019-02-18T10:14:34.067Z,7.90
2019-02-18T10:17:03.663Z,8.20
2019-02-18T10:19:33.176Z,8.50
2019-02-18T10:22:02.676Z,8.70
2019-02-18T10:24:32.880Z,8.90
2019-02-18T10:27:03.056Z,8.90
2019-02-18T10:29:32.744Z,8.90
2019-02-18T10:32:02.282Z,9.10
2019-02-18T10:34:32.032Z,9.20
2019-02-18T10:37:01.464Z,9.50
2019-02-18T10:39:31.243Z,9.80
2019-02-18T10:42:00.988Z,10.30
2019-02-18T10:44:30.768Z,10.80
2019-02-18T10:47:00.892Z,11.10
2019-02-18T10:49:30.396Z,11.00
2019-02-18T10:52:00.037Z,10.60
2019-02-18T10:54:29.920Z,10.50
2019-02-18T10:56:59.488Z,10.90
2019-02-18T10:59:29.008Z,11.60
2019-02-18T11:01:58.580Z,12.20
2019-02-18T11:04:28.443Z,12.60
2019-02-18T11:06:58.023Z,13.20
2019-02-18T11:09:27.674Z,13.60
2019-02-18T11:11:57.098Z,13.90
2019-02-18T11:14:26.608Z,14.20
2019-02-18T11:16:56.311Z,14.60
2019-02-18T11:19:26.254Z,14.80
2019-02-18T11:21:55.801Z,15.10
2019-02-18T11:24:25.341Z,15.60
2019-02-18T11:26:55.231Z,15.90
2019-02-18T11:29:25.240Z,16.30
2019-02-18T11:31:55.165Z,16.70
2019-02-18T11:34:24.672Z,17.00
2019-02-18T11:36:54.591Z,17.30
2019-02-18T11:39:24.052Z,17.70
2019-02-18T11:41:53.905Z,18.00
2019-02-18T11:44:23.407Z,18.30
2019-02-18T11:46:52.872Z,18.60
2019-02-18T11:49:22.728Z,19.00
2019-02-18T11:51:52.235Z,19.40
2019-02-18T11:54:22.408Z,19.60
2019-02-18T11:56:51.914Z,19.80
2019-02-18T11:59:24.325Z,20.00
2019-02-18T12:01:53.228Z,20.40
2019-02-18T12:04:22.733Z,20.70
2019-02-18T12:06:52.965Z,20.80
2019-02-18T12:09:22.972Z,21.10
2019-02-18T12:11:52.487Z,21.40
2019-02-18T12:14:23.236Z,21.80
2019-02-18T12:16:52.998Z,22.00
2019-02-18T12:19:22.944Z,22.20
2019-02-18T12:21:52.756Z,22.50
2019-02-18T12:24:22.496Z,22.70
2019-02-18T12:26:51.929Z,23.00
2019-02-18T12:29:26.228Z,23.00
2019-02-18T12:31:53.247Z,22.50
2019-02-18T12:34:22.779Z,22.30
2019-02-18T12:36:52.500Z,22.20
2019-02-18T12:39:22.842Z,22.60
2019-02-18T12:41:52.400Z,22.70
2019-02-18T12:44:21.909Z,23.20
2019-02-18T12:46:51.499Z,23.90
2019-02-18T12:49:21.008Z,24.30
2019-02-18T12:51:50.876Z,24.40
2019-02-18T12:54:20.736Z,24.70
2019-02-18T12:56:50.721Z,25.10
2019-02-18T12:59:20.488Z,25.50
2019-02-18T13:01:50.788Z,25.80
2019-02-18T13:04:20.293Z,26.20
2019-02-18T13:06:49.798Z,26.50
2019-02-18T13:09:19.431Z,26.90
2019-02-18T13:11:58.538Z,27.20
2019-02-18T13:14:20.132Z,27.50
2019-02-18T13:16:49.659Z,27.90
2019-02-18T13:19:19.372Z,28.10
2019-02-18T13:21:49.187Z,28.30
2019-02-18T13:24:19.689Z,28.10
2019-02-18T13:26:49.176Z,27.90
2019-02-18T13:29:19.166Z,27.90
2019-02-18T13:31:48.824Z,27.80
2019-02-18T13:34:19.069Z,27.40
2019-02-18T13:36:48.639Z,27.70
2019-02-18T13:39:18.857Z,27.70
2019-02-18T13:41:48.364Z,28.20
2019-02-18T13:44:17.939Z,28.80
2019-02-18T13:46:47.993Z,28.80
2019-02-18T13:49:17.496Z,28.20
2019-02-18T13:51:46.998Z,28.30
2019-02-18T13:54:16.837Z,28.30
2019-02-18T13:56:46.394Z,28.40
2019-02-18T13:59:16.107Z,28.20
2019-02-18T14:01:45.631Z,28.40
2019-02-18T14:04:15.604Z,28.20
2019-02-18T14:06:45.435Z,28.50
2019-02-18T14:09:18.762Z,28.70
2019-02-18T14:11:48.328Z,28.90
2019-02-18T14:14:18.333Z,28.80
2019-02-18T14:16:49.156Z,29.40
2019-02-18T14:19:18.704Z,30.20
2019-02-18T14:21:48.795Z,30.50
2019-02-18T14:24:18.400Z,30.10
2019-02-18T14:26:48.316Z,29.90
2019-02-18T14:29:17.843Z,30.20
2019-02-18T14:31:47.704Z,30.20
2019-02-18T14:34:17.203Z,29.80
2019-02-18T14:36:47.700Z,29.40
2019-02-18T14:39:19.377Z,29.60
2019-02-18T14:41:49.019Z,29.30
2019-02-18T14:44:18.519Z,29.10
2019-02-18T14:46:48.763Z,29.60
2019-02-18T14:49:18.601Z,29.90
2019-02-18T14:51:48.107Z,30.10
2019-02-18T14:54:18.163Z,30.40
2019-02-18T14:56:47.659Z,30.50
2019-02-18T14:59:17.233Z,30.40
2019-02-18T15:01:47.039Z,30.70
2019-02-18T15:04:17.013Z,31.00
2019-02-18T15:06:46.712Z,31.10
2019-02-18T15:09:17.043Z,31.40
2019-02-18T15:11:46.687Z,31.30
2019-02-18T15:14:16.709Z,31.10
2019-02-18T15:16:46.242Z,31.00
2019-02-18T15:19:16.139Z,30.60
2019-02-18T15:21:45.638Z,30.70
2019-02-18T15:24:15.651Z,30.90
2019-02-18T15:26:45.161Z,29.80
2019-02-18T15:29:14.833Z,28.00
2019-02-18T15:31:44.739Z,26.20
2019-02-18T15:34:14.596Z,24.80
2019-02-18T15:36:44.275Z,23.90
2019-02-18T15:39:14.535Z,23.10
2019-02-18T15:41:44.267Z,22.40
2019-02-18T15:44:14.060Z,21.90
2019-02-18T15:46:44.000Z,21.40
2019-02-18T15:49:13.695Z,21.10
2019-02-18T15:51:43.416Z,20.90
2019-02-18T15:54:13.363Z,20.70
2019-02-18T15:56:43.005Z,20.60
2019-02-18T15:59:13.027Z,20.30
2019-02-18T16:01:46.690Z,20.10
2019-02-18T16:04:16.359Z,19.80
2019-02-18T16:06:46.103Z,19.40
2019-02-18T16:09:16.291Z,19.30
2019-02-18T16:11:46.200Z,19.20
2019-02-18T16:14:16.088Z,19.10
2019-02-18T16:16:45.680Z,18.90
2019-02-18T16:19:15.284Z,18.60
2019-02-18T16:21:44.787Z,18.50
2019-02-18T16:24:19.946Z,18.30
2019-02-18T16:26:45.795Z,18.20
2019-02-18T16:29:16.292Z,18.00
2019-02-18T16:31:46.412Z,17.80
2019-02-18T16:34:15.918Z,17.60
2019-02-18T16:36:45.512Z,17.50
2019-02-18T16:39:15.468Z,17.40
2019-02-18T16:41:45.904Z,17.30
2019-02-18T16:44:15.744Z,17.20
2019-02-18T16:46:45.443Z,17.10
2019-02-18T16:49:15.243Z,17.00
2019-02-18T16:51:45.987Z,16.90
2019-02-18T16:54:15.947Z,16.80
2019-02-18T16:56:45.932Z,16.70
2019-02-18T16:59:15.717Z,16.50
2019-02-18T17:01:45.544Z,16.30
2019-02-18T17:04:15.191Z,16.10
2019-02-18T17:06:44.989Z,15.90
2019-02-18T17:09:15.806Z,15.70
2019-02-18T17:11:45.827Z,15.60
2019-02-18T17:14:15.602Z,15.50
2019-02-18T17:16:45.482Z,15.50
2019-02-18T17:19:15.343Z,15.50
2019-02-18T17:21:45.645Z,15.30
2019-02-18T17:24:15.295Z,15.20
2019-02-18T17:26:45.187Z,15.00
2019-02-18T17:29:15.081Z,14.80
2019-02-18T17:31:44.936Z,14.70
2019-02-18T17:34:14.523Z,14.60
2019-02-18T17:36:44.540Z,14.50
2019-02-18T17:39:14.728Z,14.50
2019-02-18T17:41:44.233Z,14.40
2019-02-18T17:44:19.972Z,14.30
2019-02-18T17:46:45.480Z,14.20
2019-02-18T17:49:15.098Z,14.20
2019-02-18T17:51:44.603Z,14.00
2019-02-18T17:54:15.441Z,13.90
2019-02-18T17:56:45.016Z,13.80
2019-02-18T17:59:14.518Z,13.70
2019-02-18T18:01:44.196Z,13.60
2019-02-18T18:04:13.843Z,13.50
2019-02-18T18:06:43.453Z,13.40
2019-02-18T18:09:13.316Z,13.40
2019-02-18T18:11:42.997Z,13.30
2019-02-18T18:14:12.479Z,13.10
2019-02-18T18:16:42.883Z,13.00
2019-02-18T18:19:12.845Z,12.90
2019-02-18T18:21:42.507Z,12.80
2019-02-18T18:24:12.341Z,12.70
2019-02-18T18:26:42.035Z,12.60
2019-02-18T18:29:11.580Z,12.60
2019-02-18T18:31:41.098Z,12.50
2019-02-18T18:34:10.623Z,12.50
2019-02-18T18:36:40.151Z,12.50
2019-02-18T18:39:09.859Z,12.40
2019-02-18T18:41:39.363Z,12.30
2019-02-18T18:44:09.337Z,12.20
2019-02-18T18:46:38.955Z,12.10
2019-02-18T18:49:08.656Z,12.00
2019-02-18T18:51:39.239Z,12.00
2019-02-18T18:54:08.915Z,11.90
2019-02-18T18:56:38.548Z,11.90
2019-02-18T18:59:08.391Z,11.80
2019-02-18T19:01:38.564Z,11.80
2019-02-18T19:04:08.307Z,11.70
2019-02-18T19:06:37.807Z,11.60
2019-02-18T19:09:07.547Z,11.50
2019-02-18T19:11:37.327Z,11.40
2019-02-18T19:14:06.868Z,11.30
2019-02-18T19:16:36.651Z,11.30
2019-02-18T19:19:06.443Z,11.20
2019-02-18T19:21:35.951Z,11.10
2019-02-18T19:24:05.637Z,11.00
2019-02-18T19:26:35.137Z,11.00
2019-02-18T19:29:04.953Z,10.90
2019-02-18T19:31:34.740Z,10.90
2019-02-18T19:34:04.317Z,10.80
2019-02-18T19:36:33.869Z,10.70
2019-02-18T19:39:04.273Z,10.70
2019-02-18T19:41:34.164Z,10.60
2019-02-18T19:44:03.762Z,10.50
2019-02-18T19:46:36.372Z,10.50
2019-02-18T19:49:06.176Z,10.40
2019-02-18T19:51:35.700Z,10.40
2019-02-18T19:54:05.667Z,10.30
2019-02-18T19:56:35.903Z,10.30
2019-02-18T19:59:06.295Z,10.30
2019-02-18T20:01:35.848Z,10.20
2019-02-18T20:04:05.330Z,10.10
2019-02-18T20:06:34.826Z,10.00
2019-02-18T20:09:24.120Z,10.00
2019-02-18T20:11:53.624Z,9.90
2019-02-18T20:14:23.539Z,9.90
2019-02-18T20:16:53.940Z,9.80
2019-02-18T20:19:23.438Z,9.80
2019-02-18T20:21:53.385Z,9.80
2019-02-18T20:24:23.115Z,9.70
2019-02-18T20:26:52.907Z,9.70
2019-02-18T20:29:22.728Z,9.60
2019-02-18T20:31:52.698Z,9.50
2019-02-18T20:34:22.180Z,9.40
2019-02-18T20:36:51.962Z,9.40
2019-02-18T20:39:21.771Z,9.30
2019-02-18T20:41:51.591Z,9.20
2019-02-18T20:44:21.457Z,9.20
2019-02-18T20:46:51.544Z,9.20
2019-02-18T20:49:21.352Z,9.20
2019-02-18T20:51:51.454Z,9.10
2019-02-18T20:54:21.635Z,9.10
2019-02-18T20:56:51.484Z,9.10
2019-02-18T20:59:21.039Z,9.00
2019-02-18T21:01:50.497Z,8.80
2019-02-18T21:04:19.987Z,8.80
2019-02-18T21:06:49.683Z,8.70
2019-02-18T21:09:19.195Z,8.70
2019-02-18T21:11:48.713Z,8.60
2019-02-18T21:14:18.536Z,8.60
2019-02-18T21:16:48.760Z,8.70
2019-02-18T21:19:18.495Z,8.70
2019-02-18T21:21:47.959Z,8.70
2019-02-18T21:24:17.788Z,8.70
2019-02-18T21:26:47.304Z,8.60
2019-02-18T21:29:17.330Z,8.60
2019-02-18T21:31:49.788Z,8.40
2019-02-18T21:34:19.557Z,8.40
2019-02-18T21:36:49.107Z,8.40
2019-02-18T21:39:19.020Z,8.40
2019-02-18T21:41:48.643Z,8.30
2019-02-18T21:44:24.977Z,8.20
2019-02-18T21:46:49.586Z,8.10
2019-02-18T21:49:19.551Z,7.90
2019-02-18T21:51:49.062Z,7.90
2019-02-18T21:54:19.289Z,7.80
2019-02-18T21:56:49.703Z,7.70
2019-02-18T21:59:19.123Z,7.70
2019-02-18T22:01:49.120Z,7.80
2019-02-18T22:04:18.611Z,7.70
2019-02-18T22:06:48.029Z,7.70
2019-02-18T22:09:17.559Z,7.60
2019-02-18T22:11:47.128Z,7.60
2019-02-18T22:14:16.667Z,7.50
2019-02-18T22:16:47.344Z,7.40
2019-02-18T22:19:17.151Z,7.30
2019-02-18T22:21:46.647Z,7.20
2019-02-18T22:24:16.165Z,7.10
2019-02-18T22:26:45.671Z,7.10
2019-02-18T22:29:15.083Z,7.00
2019-02-18T22:31:44.887Z,7.00
2019-02-18T22:34:14.424Z,6.90
2019-02-18T22:36:43.931Z,6.90
2019-02-18T22:39:13.655Z,6.90
2019-02-18T22:41:43.426Z,6.90
2019-02-18T22:44:13.340Z,6.80
2019-02-18T22:46:43.174Z,6.80
2019-02-18T22:49:12.668Z,6.70
2019-02-18T22:51:44.109Z,6.70
2019-02-18T22:54:13.627Z,6.70
2019-02-18T22:56:43.251Z,6.70
2019-02-18T22:59:12.751Z,6.70
2019-02-18T23:01:42.702Z,6.60
2019-02-18T23:04:12.560Z,6.60
2019-02-18T23:06:42.374Z,6.60
2019-02-18T23:09:13.902Z,6.60
2019-02-18T23:11:43.463Z,6.60
2019-02-18T23:14:13.171Z,6.60
2019-02-18T23:16:42.679Z,6.60
2019-02-18T23:19:12.251Z,6.50
2019-02-18T23:21:41.672Z,6.50
2019-02-18T23:24:11.315Z,6.40
2019-02-18T23:26:40.746Z,6.40
2019-02-18T23:29:10.583Z,6.30
2019-02-18T23:31:40.120Z,6.30
2019-02-18T23:34:09.619Z,6.20
2019-02-18T23:36:39.116Z,6.30
2019-02-18T23:39:08.643Z,6.20
2019-02-18T23:41:38.420Z,6.20
2019-02-18T23:44:07.847Z,6.20
2019-02-18T23:46:37.492Z,6.20
2019-02-18T23:49:07.448Z,6.20
2019-02-18T23:51:36.868Z,6.20
2019-02-18T23:54:06.664Z,6.10
2019-02-18T23:56:36.482Z,6.10
2019-02-18T23:59:06.187Z,6.00
